sensor_id;sensor_type;location;lat;lon;timestamp;P1;durP1;ratioP1;P2;durP2;ratioP2
28551;SDS011;15752;49.560;8.708;2023-04-24T00:00:06;1.53;;;0.60;;
28551;SDS011;15752;49.560;8.708;2023-04-24T00:02:37;0.57;;;0.57;;
28551;SDS011;15752;49.560;8.708;2023-04-24T00:05:07;1.43;;;0.80;;
28551;SDS011;15752;49.560;8.708;2023-04-24T00:07:36;1.20;;;0.70;;
28551;SDS011;15752;49.560;8.708;2023-04-24T00:10:06;0.93;;;0.47;;
28551;SDS011;15752;49.560;8.708;2023-04-24T00:12:36;0.70;;;0.60;;
28551;SDS011;15752;49.560;8.708;2023-04-24T00:15:05;1.37;;;0.70;;
28551;SDS011;15752;49.560;8.708;2023-04-24T00:17:35;0.90;;;0.50;;
28551;SDS011;15752;49.560;8.708;2023-04-24T00:20:04;1.47;;;0.60;;
28551;SDS011;15752;49.560;8.708;2023-04-24T00:22:33;1.00;;;0.57;;
28551;SDS011;15752;49.560;8.708;2023-04-24T00:25:02;0.73;;;0.60;;
28551;SDS011;15752;49.560;8.708;2023-04-24T00:27:33;0.93;;;0.70;;
28551;SDS011;15752;49.560;8.708;2023-04-24T00:30:03;0.77;;;0.43;;
28551;SDS011;15752;49.560;8.708;2023-04-24T00:32:33;1.07;;;0.60;;
28551;SDS011;15752;49.560;8.708;2023-04-24T00:35:02;1.27;;;0.73;;
28551;SDS011;15752;49.560;8.708;2023-04-24T00:37:32;1.33;;;0.70;;
28551;SDS011;15752;49.560;8.708;2023-04-24T00:40:01;1.20;;;0.60;;
28551;SDS011;15752;49.560;8.708;2023-04-24T00:42:30;1.17;;;0.50;;
28551;SDS011;15752;49.560;8.708;2023-04-24T00:45:00;0.70;;;0.50;;
28551;SDS011;15752;49.560;8.708;2023-04-24T00:47:30;0.80;;;0.60;;
28551;SDS011;15752;49.560;8.708;2023-04-24T00:50:00;1.33;;;0.87;;
28551;SDS011;15752;49.560;8.708;2023-04-24T00:52:31;0.97;;;0.70;;
28551;SDS011;15752;49.560;8.708;2023-04-24T00:55:00;0.70;;;0.60;;
28551;SDS011;15752;49.560;8.708;2023-04-24T00:57:28;1.00;;;0.50;;
28551;SDS011;15752;49.560;8.708;2023-04-24T00:59:59;1.30;;;0.60;;
28551;SDS011;15752;49.560;8.708;2023-04-24T01:02:27;4.97;;;0.70;;
28551;SDS011;15752;49.560;8.708;2023-04-24T01:04:56;1.47;;;0.80;;
28551;SDS011;15752;49.560;8.708;2023-04-24T01:07:25;1.47;;;0.70;;
28551;SDS011;15752;49.560;8.708;2023-04-24T01:09:53;1.13;;;0.77;;
28551;SDS011;15752;49.560;8.708;2023-04-24T01:12:24;1.27;;;0.70;;
28551;SDS011;15752;49.560;8.708;2023-04-24T01:14:52;1.07;;;0.60;;
28551;SDS011;15752;49.560;8.708;2023-04-24T01:17:22;1.17;;;0.60;;
28551;SDS011;15752;49.560;8.708;2023-04-24T01:19:50;0.70;;;0.60;;
28551;SDS011;15752;49.560;8.708;2023-04-24T01:22:21;1.73;;;0.77;;
28551;SDS011;15752;49.560;8.708;2023-04-24T01:24:50;3.10;;;0.80;;
28551;SDS011;15752;49.560;8.708;2023-04-24T01:27:19;1.30;;;0.73;;
28551;SDS011;15752;49.560;8.708;2023-04-24T01:29:48;2.87;;;0.73;;
28551;SDS011;15752;49.560;8.708;2023-04-24T01:32:18;1.80;;;0.83;;
28551;SDS011;15752;49.560;8.708;2023-04-24T01:34:47;0.57;;;0.53;;
28551;SDS011;15752;49.560;8.708;2023-04-24T01:37:16;2.00;;;0.73;;
28551;SDS011;15752;49.560;8.708;2023-04-24T01:39:46;1.90;;;0.53;;
28551;SDS011;15752;49.560;8.708;2023-04-24T01:42:14;1.37;;;0.80;;
28551;SDS011;15752;49.560;8.708;2023-04-24T01:44:46;0.73;;;0.60;;
28551;SDS011;15752;49.560;8.708;2023-04-24T01:47:15;0.97;;;0.60;;
28551;SDS011;15752;49.560;8.708;2023-04-24T01:49:43;3.43;;;0.87;;
28551;SDS011;15752;49.560;8.708;2023-04-24T01:52:13;1.00;;;0.60;;
28551;SDS011;15752;49.560;8.708;2023-04-24T01:54:42;0.50;;;0.50;;
28551;SDS011;15752;49.560;8.708;2023-04-24T01:57:12;1.93;;;0.70;;
28551;SDS011;15752;49.560;8.708;2023-04-24T01:59:41;1.23;;;0.67;;
28551;SDS011;15752;49.560;8.708;2023-04-24T02:02:10;0.87;;;0.60;;
28551;SDS011;15752;49.560;8.708;2023-04-24T02:04:39;2.10;;;0.60;;
28551;SDS011;15752;49.560;8.708;2023-04-24T02:07:07;1.70;;;0.57;;
28551;SDS011;15752;49.560;8.708;2023-04-24T02:09:35;2.40;;;0.93;;
28551;SDS011;15752;49.560;8.708;2023-04-24T02:12:04;1.53;;;0.77;;
28551;SDS011;15752;49.560;8.708;2023-04-24T02:14:34;1.77;;;0.70;;
28551;SDS011;15752;49.560;8.708;2023-04-24T02:17:03;1.63;;;0.57;;
28551;SDS011;15752;49.560;8.708;2023-04-24T02:19:35;1.17;;;0.73;;
28551;SDS011;15752;49.560;8.708;2023-04-24T02:22:03;2.03;;;0.57;;
28551;SDS011;15752;49.560;8.708;2023-04-24T02:24:34;1.63;;;0.60;;
28551;SDS011;15752;49.560;8.708;2023-04-24T02:27:03;1.47;;;0.67;;
28551;SDS011;15752;49.560;8.708;2023-04-24T02:29:31;0.40;;;0.40;;
28551;SDS011;15752;49.560;8.708;2023-04-24T02:32:01;1.33;;;0.50;;
28551;SDS011;15752;49.560;8.708;2023-04-24T02:34:30;1.63;;;0.70;;
28551;SDS011;15752;49.560;8.708;2023-04-24T02:36:58;1.17;;;0.60;;
28551;SDS011;15752;49.560;8.708;2023-04-24T02:39:27;1.00;;;0.63;;
28551;SDS011;15752;49.560;8.708;2023-04-24T02:41:55;1.23;;;0.60;;
28551;SDS011;15752;49.560;8.708;2023-04-24T02:44:24;1.53;;;0.60;;
28551;SDS011;15752;49.560;8.708;2023-04-24T02:46:52;1.57;;;0.60;;
28551;SDS011;15752;49.560;8.708;2023-04-24T02:49:23;0.83;;;0.60;;
28551;SDS011;15752;49.560;8.708;2023-04-24T02:51:52;0.70;;;0.53;;
28551;SDS011;15752;49.560;8.708;2023-04-24T02:54:21;1.30;;;0.70;;
28551;SDS011;15752;49.560;8.708;2023-04-24T02:56:49;1.57;;;0.50;;
28551;SDS011;15752;49.560;8.708;2023-04-24T02:59:18;0.83;;;0.63;;
28551;SDS011;15752;49.560;8.708;2023-04-24T03:01:46;1.23;;;0.60;;
28551;SDS011;15752;49.560;8.708;2023-04-24T03:04:15;1.87;;;0.93;;
28551;SDS011;15752;49.560;8.708;2023-04-24T03:06:49;1.40;;;0.73;;
28551;SDS011;15752;49.560;8.708;2023-04-24T03:09:21;2.47;;;0.90;;
28551;SDS011;15752;49.560;8.708;2023-04-24T03:11:49;2.07;;;0.60;;
28551;SDS011;15752;49.560;8.708;2023-04-24T03:14:18;1.13;;;0.53;;
28551;SDS011;15752;49.560;8.708;2023-04-24T03:16:46;1.23;;;0.77;;
28551;SDS011;15752;49.560;8.708;2023-04-24T03:19:14;1.50;;;0.50;;
28551;SDS011;15752;49.560;8.708;2023-04-24T03:21:56;0.90;;;0.70;;
28551;SDS011;15752;49.560;8.708;2023-04-24T03:24:24;0.87;;;0.60;;
28551;SDS011;15752;49.560;8.708;2023-04-24T03:26:54;0.50;;;0.50;;
28551;SDS011;15752;49.560;8.708;2023-04-24T03:29:49;0.90;;;0.60;;
28551;SDS011;15752;49.560;8.708;2023-04-24T03:32:25;1.27;;;0.80;;
28551;SDS011;15752;49.560;8.708;2023-04-24T03:34:54;1.37;;;0.60;;
28551;SDS011;15752;49.560;8.708;2023-04-24T03:37:23;1.17;;;0.60;;
28551;SDS011;15752;49.560;8.708;2023-04-24T03:40:05;1.33;;;0.70;;
28551;SDS011;15752;49.560;8.708;2023-04-24T03:42:36;3.90;;;0.70;;
28551;SDS011;15752;49.560;8.708;2023-04-24T03:45:05;1.27;;;0.70;;
28551;SDS011;15752;49.560;8.708;2023-04-24T03:47:41;1.53;;;0.70;;
28551;SDS011;15752;49.560;8.708;2023-04-24T03:50:10;1.97;;;0.90;;
28551;SDS011;15752;49.560;8.708;2023-04-24T03:52:42;1.13;;;0.90;;
28551;SDS011;15752;49.560;8.708;2023-04-24T03:55:19;1.10;;;0.90;;
28551;SDS011;15752;49.560;8.708;2023-04-24T03:57:47;1.27;;;0.67;;
28551;SDS011;15752;49.560;8.708;2023-04-24T04:00:20;3.23;;;1.03;;
28551;SDS011;15752;49.560;8.708;2023-04-24T04:03:01;1.00;;;0.90;;
28551;SDS011;15752;49.560;8.708;2023-04-24T04:05:31;1.33;;;0.90;;
28551;SDS011;15752;49.560;8.708;2023-04-24T04:08:00;0.70;;;0.70;;
28551;SDS011;15752;49.560;8.708;2023-04-24T04:10:29;0.83;;;0.80;;
28551;SDS011;15752;49.560;8.708;2023-04-24T04:12:57;1.77;;;0.90;;
28551;SDS011;15752;49.560;8.708;2023-04-24T04:15:26;0.77;;;0.70;;
28551;SDS011;15752;49.560;8.708;2023-04-24T04:17:54;1.10;;;0.90;;
28551;SDS011;15752;49.560;8.708;2023-04-24T04:20:23;1.27;;;0.80;;
28551;SDS011;15752;49.560;8.708;2023-04-24T04:22:52;0.60;;;0.60;;
28551;SDS011;15752;49.560;8.708;2023-04-24T04:25:32;2.07;;;0.90;;
28551;SDS011;15752;49.560;8.708;2023-04-24T04:28:01;0.90;;;0.80;;
28551;SDS011;15752;49.560;8.708;2023-04-24T04:30:29;1.43;;;0.80;;
28551;SDS011;15752;49.560;8.708;2023-04-24T04:33:01;1.50;;;1.07;;
28551;SDS011;15752;49.560;8.708;2023-04-24T04:35:31;1.50;;;1.00;;
28551;SDS011;15752;49.560;8.708;2023-04-24T04:37:59;1.70;;;0.90;;
28551;SDS011;15752;49.560;8.708;2023-04-24T04:40:43;1.33;;;1.10;;
28551;SDS011;15752;49.560;8.708;2023-04-24T04:43:14;1.10;;;1.00;;
28551;SDS011;15752;49.560;8.708;2023-04-24T04:45:49;1.10;;;1.00;;
28551;SDS011;15752;49.560;8.708;2023-04-24T04:48:36;1.53;;;1.10;;
28551;SDS011;15752;49.560;8.708;2023-04-24T04:51:06;1.13;;;1.07;;
28551;SDS011;15752;49.560;8.708;2023-04-24T04:53:35;2.47;;;1.30;;
28551;SDS011;15752;49.560;8.708;2023-04-24T04:56:05;1.00;;;0.90;;
28551;SDS011;15752;49.560;8.708;2023-04-24T04:58:39;1.13;;;1.00;;
28551;SDS011;15752;49.560;8.708;2023-04-24T05:01:11;2.80;;;1.30;;
28551;SDS011;15752;49.560;8.708;2023-04-24T05:03:43;1.60;;;1.40;;
28551;SDS011;15752;49.560;8.708;2023-04-24T05:06:14;2.10;;;1.33;;
28551;SDS011;15752;49.560;8.708;2023-04-24T05:08:44;1.23;;;1.10;;
28551;SDS011;15752;49.560;8.708;2023-04-24T05:11:27;1.33;;;1.13;;
28551;SDS011;15752;49.560;8.708;2023-04-24T05:13:56;1.23;;;1.10;;
28551;SDS011;15752;49.560;8.708;2023-04-24T05:16:34;1.30;;;1.03;;
28551;SDS011;15752;49.560;8.708;2023-04-24T05:19:04;1.67;;;1.00;;
28551;SDS011;15752;49.560;8.708;2023-04-24T05:21:37;1.63;;;1.30;;
28551;SDS011;15752;49.560;8.708;2023-04-24T05:24:07;1.53;;;1.40;;
28551;SDS011;15752;49.560;8.708;2023-04-24T05:26:50;1.63;;;1.20;;
28551;SDS011;15752;49.560;8.708;2023-04-24T05:29:23;1.60;;;1.17;;
28551;SDS011;15752;49.560;8.708;2023-04-24T05:31:53;2.40;;;1.10;;
28551;SDS011;15752;49.560;8.708;2023-04-24T05:34:22;1.20;;;1.10;;
28551;SDS011;15752;49.560;8.708;2023-04-24T05:36:54;1.50;;;1.37;;
28551;SDS011;15752;49.560;8.708;2023-04-24T05:39:22;1.20;;;1.10;;
28551;SDS011;15752;49.560;8.708;2023-04-24T05:41:54;1.30;;;1.20;;
28551;SDS011;15752;49.560;8.708;2023-04-24T05:44:24;2.13;;;1.27;;
28551;SDS011;15752;49.560;8.708;2023-04-24T05:46:52;1.97;;;1.30;;
28551;SDS011;15752;49.560;8.708;2023-04-24T05:49:22;1.30;;;1.20;;
28551;SDS011;15752;49.560;8.708;2023-04-24T05:51:51;1.60;;;1.50;;
28551;SDS011;15752;49.560;8.708;2023-04-24T05:54:21;3.83;;;1.60;;
28551;SDS011;15752;49.560;8.708;2023-04-24T05:56:50;2.50;;;1.70;;
28551;SDS011;15752;49.560;8.708;2023-04-24T05:59:37;1.30;;;1.20;;
28551;SDS011;15752;49.560;8.708;2023-04-24T06:02:06;1.90;;;1.60;;
28551;SDS011;15752;49.560;8.708;2023-04-24T06:04:35;1.87;;;1.40;;
28551;SDS011;15752;49.560;8.708;2023-04-24T06:07:04;2.17;;;1.73;;
28551;SDS011;15752;49.560;8.708;2023-04-24T06:09:33;1.70;;;1.60;;
28551;SDS011;15752;49.560;8.708;2023-04-24T06:12:01;2.53;;;1.80;;
28551;SDS011;15752;49.560;8.708;2023-04-24T06:14:46;2.70;;;1.40;;
28551;SDS011;15752;49.560;8.708;2023-04-24T06:17:22;1.67;;;1.50;;
28551;SDS011;15752;49.560;8.708;2023-04-24T06:19:50;3.33;;;2.30;;
28551;SDS011;15752;49.560;8.708;2023-04-24T06:22:21;2.13;;;1.80;;
28551;SDS011;15752;49.560;8.708;2023-04-24T06:24:49;2.63;;;1.97;;
28551;SDS011;15752;49.560;8.708;2023-04-24T06:27:18;3.67;;;1.93;;
28551;SDS011;15752;49.560;8.708;2023-04-24T06:29:47;2.80;;;2.37;;
28551;SDS011;15752;49.560;8.708;2023-04-24T06:32:21;4.20;;;1.90;;
28551;SDS011;15752;49.560;8.708;2023-04-24T06:34:50;3.80;;;2.43;;
28551;SDS011;15752;49.560;8.708;2023-04-24T06:37:19;2.53;;;2.10;;
28551;SDS011;15752;49.560;8.708;2023-04-24T06:39:48;2.30;;;2.10;;
28551;SDS011;15752;49.560;8.708;2023-04-24T06:42:16;3.80;;;2.53;;
28551;SDS011;15752;49.560;8.708;2023-04-24T06:44:50;2.63;;;2.10;;
28551;SDS011;15752;49.560;8.708;2023-04-24T06:47:18;4.07;;;2.40;;
28551;SDS011;15752;49.560;8.708;2023-04-24T06:49:47;2.30;;;2.10;;
28551;SDS011;15752;49.560;8.708;2023-04-24T06:52:17;2.77;;;2.03;;
28551;SDS011;15752;49.560;8.708;2023-04-24T06:54:45;3.77;;;2.10;;
28551;SDS011;15752;49.560;8.708;2023-04-24T06:57:14;2.60;;;2.20;;
28551;SDS011;15752;49.560;8.708;2023-04-24T06:59:43;3.40;;;2.20;;
28551;SDS011;15752;49.560;8.708;2023-04-24T07:02:13;2.40;;;2.07;;
28551;SDS011;15752;49.560;8.708;2023-04-24T07:04:41;2.80;;;2.13;;
28551;SDS011;15752;49.560;8.708;2023-04-24T07:07:11;2.90;;;2.00;;
28551;SDS011;15752;49.560;8.708;2023-04-24T07:09:40;1.80;;;1.70;;
28551;SDS011;15752;49.560;8.708;2023-04-24T07:12:11;3.37;;;1.70;;
28551;SDS011;15752;49.560;8.708;2023-04-24T07:14:39;2.57;;;1.50;;
28551;SDS011;15752;49.560;8.708;2023-04-24T07:17:08;2.23;;;1.70;;
28551;SDS011;15752;49.560;8.708;2023-04-24T07:19:38;1.77;;;1.50;;
28551;SDS011;15752;49.560;8.708;2023-04-24T07:22:06;1.77;;;1.17;;
28551;SDS011;15752;49.560;8.708;2023-04-24T07:24:35;1.80;;;1.30;;
28551;SDS011;15752;49.560;8.708;2023-04-24T07:27:04;1.40;;;1.00;;
28551;SDS011;15752;49.560;8.708;2023-04-24T07:29:32;1.57;;;1.13;;
28551;SDS011;15752;49.560;8.708;2023-04-24T07:32:02;1.27;;;1.10;;
28551;SDS011;15752;49.560;8.708;2023-04-24T07:34:30;1.30;;;0.87;;
28551;SDS011;15752;49.560;8.708;2023-04-24T07:37:00;0.90;;;0.90;;
28551;SDS011;15752;49.560;8.708;2023-04-24T07:39:29;1.10;;;1.00;;
28551;SDS011;15752;49.560;8.708;2023-04-24T07:41:58;2.07;;;1.03;;
28551;SDS011;15752;49.560;8.708;2023-04-24T07:44:27;1.30;;;0.80;;
28551;SDS011;15752;49.560;8.708;2023-04-24T07:46:56;0.73;;;0.73;;
28551;SDS011;15752;49.560;8.708;2023-04-24T07:49:24;1.20;;;1.10;;
28551;SDS011;15752;49.560;8.708;2023-04-24T07:51:54;1.10;;;0.90;;
28551;SDS011;15752;49.560;8.708;2023-04-24T07:54:24;0.90;;;0.90;;
28551;SDS011;15752;49.560;8.708;2023-04-24T07:56:52;1.20;;;0.90;;
28551;SDS011;15752;49.560;8.708;2023-04-24T07:59:20;2.30;;;1.10;;
28551;SDS011;15752;49.560;8.708;2023-04-24T08:01:49;1.30;;;1.00;;
28551;SDS011;15752;49.560;8.708;2023-04-24T08:04:18;1.27;;;0.97;;
28551;SDS011;15752;49.560;8.708;2023-04-24T08:06:47;0.80;;;0.80;;
28551;SDS011;15752;49.560;8.708;2023-04-24T08:09:15;1.20;;;0.63;;
28551;SDS011;15752;49.560;8.708;2023-04-24T08:11:45;1.77;;;1.10;;
28551;SDS011;15752;49.560;8.708;2023-04-24T08:14:13;1.83;;;1.23;;
28551;SDS011;15752;49.560;8.708;2023-04-24T08:16:42;1.43;;;0.90;;
28551;SDS011;15752;49.560;8.708;2023-04-24T08:19:10;2.27;;;1.70;;
28551;SDS011;15752;49.560;8.708;2023-04-24T08:21:39;1.30;;;1.07;;
28551;SDS011;15752;49.560;8.708;2023-04-24T08:24:07;1.40;;;1.00;;
28551;SDS011;15752;49.560;8.708;2023-04-24T08:26:35;2.70;;;1.57;;
28551;SDS011;15752;49.560;8.708;2023-04-24T08:29:05;1.80;;;1.30;;
28551;SDS011;15752;49.560;8.708;2023-04-24T08:31:34;1.43;;;1.00;;
28551;SDS011;15752;49.560;8.708;2023-04-24T08:34:02;1.90;;;1.10;;
28551;SDS011;15752;49.560;8.708;2023-04-24T08:36:31;2.47;;;1.23;;
28551;SDS011;15752;49.560;8.708;2023-04-24T08:39:12;1.40;;;1.30;;
28551;SDS011;15752;49.560;8.708;2023-04-24T08:41:41;1.73;;;1.50;;
28551;SDS011;15752;49.560;8.708;2023-04-24T08:44:13;1.27;;;1.10;;
28551;SDS011;15752;49.560;8.708;2023-04-24T08:46:42;1.37;;;1.27;;
28551;SDS011;15752;49.560;8.708;2023-04-24T08:49:14;1.63;;;1.30;;
28551;SDS011;15752;49.560;8.708;2023-04-24T08:51:43;2.53;;;1.60;;
28551;SDS011;15752;49.560;8.708;2023-04-24T08:54:13;1.77;;;1.67;;
28551;SDS011;15752;49.560;8.708;2023-04-24T08:56:42;2.80;;;1.60;;
28551;SDS011;15752;49.560;8.708;2023-04-24T08:59:14;5.30;;;1.80;;
28551;SDS011;15752;49.560;8.708;2023-04-24T09:01:42;1.83;;;1.70;;
28551;SDS011;15752;49.560;8.708;2023-04-24T09:04:13;4.60;;;3.17;;
28551;SDS011;15752;49.560;8.708;2023-04-24T09:06:44;3.93;;;3.53;;
28551;SDS011;15752;49.560;8.708;2023-04-24T09:09:13;3.10;;;2.90;;
28551;SDS011;15752;49.560;8.708;2023-04-24T09:11:43;2.70;;;2.47;;
28551;SDS011;15752;49.560;8.708;2023-04-24T09:14:13;2.30;;;2.10;;
28551;SDS011;15752;49.560;8.708;2023-04-24T09:16:42;2.37;;;2.17;;
28551;SDS011;15752;49.560;8.708;2023-04-24T09:19:10;3.10;;;2.80;;
28551;SDS011;15752;49.560;8.708;2023-04-24T09:21:39;2.47;;;2.27;;
28551;SDS011;15752;49.560;8.708;2023-04-24T09:24:14;3.13;;;1.93;;
28551;SDS011;15752;49.560;8.708;2023-04-24T09:26:44;2.30;;;2.10;;
28551;SDS011;15752;49.560;8.708;2023-04-24T09:29:18;2.60;;;1.60;;
28551;SDS011;15752;49.560;8.708;2023-04-24T09:31:46;1.40;;;1.30;;
28551;SDS011;15752;49.560;8.708;2023-04-24T09:34:18;1.97;;;1.47;;
28551;SDS011;15752;49.560;8.708;2023-04-24T09:36:49;1.40;;;1.30;;
28551;SDS011;15752;49.560;8.708;2023-04-24T09:39:18;2.40;;;1.47;;
28551;SDS011;15752;49.560;8.708;2023-04-24T09:41:47;2.13;;;1.60;;
28551;SDS011;15752;49.560;8.708;2023-04-24T09:44:19;1.30;;;1.20;;
28551;SDS011;15752;49.560;8.708;2023-04-24T09:46:49;2.77;;;1.43;;
28551;SDS011;15752;49.560;8.708;2023-04-24T09:49:21;1.93;;;1.20;;
28551;SDS011;15752;49.560;8.708;2023-04-24T09:51:52;2.20;;;1.30;;
28551;SDS011;15752;49.560;8.708;2023-04-24T09:54:30;1.40;;;1.30;;
28551;SDS011;15752;49.560;8.708;2023-04-24T09:56:59;1.43;;;1.33;;
28551;SDS011;15752;49.560;8.708;2023-04-24T09:59:29;2.63;;;1.30;;
28551;SDS011;15752;49.560;8.708;2023-04-24T10:01:59;1.60;;;1.00;;
28551;SDS011;15752;49.560;8.708;2023-04-24T10:04:28;2.53;;;1.27;;
28551;SDS011;15752;49.560;8.708;2023-04-24T10:06:57;1.47;;;1.37;;
28551;SDS011;15752;49.560;8.708;2023-04-24T10:09:26;1.43;;;1.23;;
28551;SDS011;15752;49.560;8.708;2023-04-24T10:11:54;2.03;;;1.50;;
28551;SDS011;15752;49.560;8.708;2023-04-24T10:14:23;2.03;;;1.27;;
28551;SDS011;15752;49.560;8.708;2023-04-24T10:16:54;1.87;;;1.20;;
28551;SDS011;15752;49.560;8.708;2023-04-24T10:19:25;1.93;;;1.40;;
28551;SDS011;15752;49.560;8.708;2023-04-24T10:21:54;2.97;;;1.80;;
28551;SDS011;15752;49.560;8.708;2023-04-24T10:24:23;2.03;;;1.33;;
28551;SDS011;15752;49.560;8.708;2023-04-24T10:26:52;2.20;;;1.53;;
28551;SDS011;15752;49.560;8.708;2023-04-24T10:29:20;1.87;;;1.20;;
28551;SDS011;15752;49.560;8.708;2023-04-24T10:31:49;4.07;;;1.77;;
28551;SDS011;15752;49.560;8.708;2023-04-24T10:34:18;2.63;;;1.67;;
28551;SDS011;15752;49.560;8.708;2023-04-24T10:36:51;2.00;;;1.60;;
28551;SDS011;15752;49.560;8.708;2023-04-24T10:39:23;2.43;;;1.50;;
28551;SDS011;15752;49.560;8.708;2023-04-24T10:41:53;2.30;;;1.30;;
28551;SDS011;15752;49.560;8.708;2023-04-24T10:44:24;1.67;;;1.00;;
28551;SDS011;15752;49.560;8.708;2023-04-24T10:46:53;2.07;;;1.40;;
28551;SDS011;15752;49.560;8.708;2023-04-24T10:49:28;2.40;;;1.30;;
28551;SDS011;15752;49.560;8.708;2023-04-24T10:52:00;3.53;;;1.27;;
28551;SDS011;15752;49.560;8.708;2023-04-24T10:54:34;1.30;;;1.20;;
28551;SDS011;15752;49.560;8.708;2023-04-24T11:00:15;1.57;;;1.23;;
28551;SDS011;15752;49.560;8.708;2023-04-24T11:02:47;2.33;;;1.33;;
28551;SDS011;15752;49.560;8.708;2023-04-24T11:05:22;1.80;;;1.20;;
28551;SDS011;15752;49.560;8.708;2023-04-24T11:08:26;1.40;;;1.30;;
28551;SDS011;15752;49.560;8.708;2023-04-24T11:10:59;1.27;;;1.17;;
28551;SDS011;15752;49.560;8.708;2023-04-24T11:16:44;1.60;;;1.27;;
28551;SDS011;15752;49.560;8.708;2023-04-24T11:19:21;1.77;;;1.30;;
28551;SDS011;15752;49.560;8.708;2023-04-24T11:21:57;2.17;;;1.60;;
28551;SDS011;15752;49.560;8.708;2023-04-24T11:24:31;2.17;;;1.70;;
28551;SDS011;15752;49.560;8.708;2023-04-24T11:27:14;1.40;;;1.30;;
28551;SDS011;15752;49.560;8.708;2023-04-24T11:29:46;1.37;;;1.03;;
28551;SDS011;15752;49.560;8.708;2023-04-24T11:32:17;1.63;;;1.40;;
28551;SDS011;15752;49.560;8.708;2023-04-24T11:34:52;1.50;;;1.40;;
28551;SDS011;15752;49.560;8.708;2023-04-24T11:37:23;3.27;;;1.27;;
28551;SDS011;15752;49.560;8.708;2023-04-24T11:39:55;2.90;;;1.70;;
28551;SDS011;15752;49.560;8.708;2023-04-24T11:42:26;1.40;;;1.30;;
28551;SDS011;15752;49.560;8.708;2023-04-24T11:44:55;1.70;;;1.60;;
28551;SDS011;15752;49.560;8.708;2023-04-24T11:47:28;1.50;;;1.40;;
28551;SDS011;15752;49.560;8.708;2023-04-24T11:49:57;2.03;;;1.70;;
28551;SDS011;15752;49.560;8.708;2023-04-24T11:52:28;2.40;;;2.10;;
28551;SDS011;15752;49.560;8.708;2023-04-24T11:54:58;3.50;;;2.37;;
28551;SDS011;15752;49.560;8.708;2023-04-24T11:57:27;2.27;;;2.00;;
28551;SDS011;15752;49.560;8.708;2023-04-24T11:59:59;6.00;;;3.63;;
28551;SDS011;15752;49.560;8.708;2023-04-24T12:02:37;2.43;;;2.23;;
28551;SDS011;15752;49.560;8.708;2023-04-24T12:05:06;3.27;;;2.57;;
28551;SDS011;15752;49.560;8.708;2023-04-24T12:07:41;3.03;;;2.73;;
28551;SDS011;15752;49.560;8.708;2023-04-24T12:10:10;2.50;;;2.30;;
28551;SDS011;15752;49.560;8.708;2023-04-24T12:12:38;3.67;;;2.30;;
28551;SDS011;15752;49.560;8.708;2023-04-24T12:15:09;3.93;;;2.50;;
28551;SDS011;15752;49.560;8.708;2023-04-24T12:17:40;2.70;;;2.27;;
28551;SDS011;15752;49.560;8.708;2023-04-24T12:20:10;4.27;;;2.40;;
28551;SDS011;15752;49.560;8.708;2023-04-24T12:22:45;3.60;;;2.40;;
28551;SDS011;15752;49.560;8.708;2023-04-24T12:25:14;3.50;;;3.20;;
28551;SDS011;15752;49.560;8.708;2023-04-24T12:27:44;3.43;;;2.50;;
28551;SDS011;15752;49.560;8.708;2023-04-24T12:30:14;4.70;;;4.30;;
28551;SDS011;15752;49.560;8.708;2023-04-24T12:32:44;4.13;;;3.70;;
28551;SDS011;15752;49.560;8.708;2023-04-24T12:35:18;4.73;;;4.27;;
28551;SDS011;15752;49.560;8.708;2023-04-24T12:37:50;4.63;;;2.90;;
28551;SDS011;15752;49.560;8.708;2023-04-24T12:40:20;4.67;;;2.87;;
28551;SDS011;15752;49.560;8.708;2023-04-24T12:42:49;4.67;;;3.37;;
28551;SDS011;15752;49.560;8.708;2023-04-24T12:45:20;4.77;;;3.63;;
28551;SDS011;15752;49.560;8.708;2023-04-24T12:47:50;7.77;;;6.00;;
28551;SDS011;15752;49.560;8.708;2023-04-24T12:50:18;6.30;;;4.90;;
28551;SDS011;15752;49.560;8.708;2023-04-24T12:52:49;4.67;;;3.57;;
28551;SDS011;15752;49.560;8.708;2023-04-24T12:55:17;3.70;;;2.80;;
28551;SDS011;15752;49.560;8.708;2023-04-24T12:57:46;4.03;;;2.57;;
28551;SDS011;15752;49.560;8.708;2023-04-24T13:00:15;3.47;;;2.37;;
28551;SDS011;15752;49.560;8.708;2023-04-24T13:02:45;3.87;;;2.57;;
28551;SDS011;15752;49.560;8.708;2023-04-24T13:05:14;4.20;;;2.80;;
28551;SDS011;15752;49.560;8.708;2023-04-24T13:07:43;4.03;;;3.40;;
28551;SDS011;15752;49.560;8.708;2023-04-24T13:10:13;4.57;;;3.07;;
28551;SDS011;15752;49.560;8.708;2023-04-24T13:12:41;5.47;;;2.77;;
28551;SDS011;15752;49.560;8.708;2023-04-24T13:15:12;5.73;;;3.77;;
28551;SDS011;15752;49.560;8.708;2023-04-24T13:17:40;6.10;;;3.67;;
28551;SDS011;15752;49.560;8.708;2023-04-24T13:20:09;5.33;;;3.03;;
28551;SDS011;15752;49.560;8.708;2023-04-24T13:22:38;3.60;;;2.53;;
28551;SDS011;15752;49.560;8.708;2023-04-24T13:25:06;3.47;;;2.60;;
28551;SDS011;15752;49.560;8.708;2023-04-24T13:27:39;6.63;;;3.07;;
28551;SDS011;15752;49.560;8.708;2023-04-24T13:30:07;3.30;;;2.30;;
28551;SDS011;15752;49.560;8.708;2023-04-24T13:32:37;4.33;;;2.50;;
28551;SDS011;15752;49.560;8.708;2023-04-24T13:35:06;4.33;;;3.93;;
28551;SDS011;15752;49.560;8.708;2023-04-24T13:37:37;3.93;;;3.20;;
28551;SDS011;15752;49.560;8.708;2023-04-24T13:40:05;9.23;;;7.47;;
28551;SDS011;15752;49.560;8.708;2023-04-24T13:42:35;12.37;;;9.50;;
28551;SDS011;15752;49.560;8.708;2023-04-24T13:45:05;7.60;;;5.73;;
28551;SDS011;15752;49.560;8.708;2023-04-24T13:47:50;3.77;;;2.97;;
28551;SDS011;15752;49.560;8.708;2023-04-24T13:50:20;2.97;;;2.57;;
28551;SDS011;15752;49.560;8.708;2023-04-24T13:52:49;5.57;;;2.90;;
28551;SDS011;15752;49.560;8.708;2023-04-24T13:55:17;5.37;;;2.73;;
28551;SDS011;15752;49.560;8.708;2023-04-24T13:58:03;3.03;;;2.57;;
28551;SDS011;15752;49.560;8.708;2023-04-24T14:00:34;3.53;;;2.87;;
28551;SDS011;15752;49.560;8.708;2023-04-24T14:03:02;3.20;;;2.90;;
28551;SDS011;15752;49.560;8.708;2023-04-24T14:05:31;3.40;;;2.63;;
28551;SDS011;15752;49.560;8.708;2023-04-24T14:08:02;4.93;;;3.63;;
28551;SDS011;15752;49.560;8.708;2023-04-24T14:10:30;2.97;;;2.67;;
28551;SDS011;15752;49.560;8.708;2023-04-24T14:12:58;3.13;;;2.83;;
28551;SDS011;15752;49.560;8.708;2023-04-24T14:15:30;3.10;;;2.80;;
28551;SDS011;15752;49.560;8.708;2023-04-24T14:18:00;4.50;;;3.43;;
28551;SDS011;15752;49.560;8.708;2023-04-24T14:20:31;3.50;;;2.97;;
28551;SDS011;15752;49.560;8.708;2023-04-24T14:23:00;6.47;;;3.87;;
28551;SDS011;15752;49.560;8.708;2023-04-24T14:25:31;7.87;;;5.47;;
28551;SDS011;15752;49.560;8.708;2023-04-24T14:27:59;4.87;;;3.90;;
28551;SDS011;15752;49.560;8.708;2023-04-24T14:30:28;6.33;;;4.73;;
28551;SDS011;15752;49.560;8.708;2023-04-24T14:32:56;7.03;;;5.07;;
28551;SDS011;15752;49.560;8.708;2023-04-24T14:35:26;4.53;;;3.60;;
28551;SDS011;15752;49.560;8.708;2023-04-24T14:37:57;7.73;;;6.10;;
28551;SDS011;15752;49.560;8.708;2023-04-24T14:40:26;7.03;;;5.03;;
28551;SDS011;15752;49.560;8.708;2023-04-24T14:43:14;5.43;;;4.40;;
28551;SDS011;15752;49.560;8.708;2023-04-24T14:45:43;5.47;;;3.40;;
28551;SDS011;15752;49.560;8.708;2023-04-24T14:48:11;6.03;;;4.27;;
28551;SDS011;15752;49.560;8.708;2023-04-24T14:50:41;7.07;;;5.27;;
28551;SDS011;15752;49.560;8.708;2023-04-24T14:53:10;7.70;;;4.67;;
28551;SDS011;15752;49.560;8.708;2023-04-24T14:55:38;5.47;;;4.13;;
28551;SDS011;15752;49.560;8.708;2023-04-24T14:58:06;8.37;;;6.43;;
28551;SDS011;15752;49.560;8.708;2023-04-24T15:00:35;5.23;;;4.07;;
28551;SDS011;15752;49.560;8.708;2023-04-24T15:03:03;6.27;;;3.83;;
28551;SDS011;15752;49.560;8.708;2023-04-24T15:05:32;6.63;;;4.67;;
28551;SDS011;15752;49.560;8.708;2023-04-24T15:08:02;11.00;;;6.70;;
28551;SDS011;15752;49.560;8.708;2023-04-24T15:10:31;6.37;;;4.80;;
28551;SDS011;15752;49.560;8.708;2023-04-24T15:12:59;6.70;;;4.13;;